createdAt,value
2017-06-20T00:02:09.708Z,100499.91
2017-06-20T00:04:38.781Z,100500.50
2017-06-20T00:07:07.854Z,100500.70
2017-06-20T00:09:36.931Z,100502.30
2017-06-20T00:12:06.951Z,100499.13
2017-06-20T00:14:35.995Z,100500.73
2017-06-20T00:17:05.085Z,100499.94
2017-06-20T00:19:34.159Z,100501.52
2017-06-20T00:22:03.216Z,100495.39
2017-06-20T00:24:32.296Z,100494.81
2017-06-20T00:27:01.340Z,100498.95
2017-06-20T00:29:30.551Z,100498.39
2017-06-20T00:31:59.641Z,100497.19
2017-06-20T00:34:28.725Z,100495.80
2017-06-20T00:36:57.791Z,100492.85
2017-06-20T00:39:26.863Z,100498.39
2017-06-20T00:41:55.968Z,100494.24
2017-06-20T00:44:25.035Z,100492.42
2017-06-20T00:46:54.112Z,100489.24
2017-06-20T00:49:23.168Z,100491.63
2017-06-20T00:51:52.276Z,100488.85
2017-06-20T00:54:22.198Z,100495.57
2017-06-20T00:56:51.533Z,100494.78
2017-06-20T00:59:20.664Z,100499.12
2017-06-20T01:01:49.773Z,100495.93
2017-06-20T01:04:18.848Z,100497.30
2017-06-20T01:06:47.960Z,100492.76
2017-06-20T01:09:16.995Z,100493.13
2017-06-20T01:11:46.064Z,100492.55
2017-06-20T01:14:15.886Z,100491.53
2017-06-20T01:16:45.724Z,100494.90
2017-06-20T01:19:14.833Z,100488.33
2017-06-20T01:21:43.900Z,100493.05
2017-06-20T01:24:13.725Z,100484.94
2017-06-20T01:26:42.825Z,100481.98
2017-06-20T01:29:12.167Z,100487.72
2017-06-20T01:31:41.213Z,100486.50
2017-06-20T01:34:10.281Z,100477.83
2017-06-20T01:36:40.116Z,100479.02
2017-06-20T01:39:09.251Z,100480.80
2017-06-20T01:41:38.311Z,100476.42
2017-06-20T01:44:07.983Z,100474.25
2017-06-20T01:46:37.027Z,100471.88
2017-06-20T01:49:06.089Z,100475.84
2017-06-20T01:51:35.926Z,100472.48
2017-06-20T01:54:05.008Z,100471.86
2017-06-20T01:56:34.081Z,100468.08
2017-06-20T01:59:03.944Z,100470.64
2017-06-20T02:01:33.024Z,100474.37
2017-06-20T02:04:02.104Z,100469.59
2017-06-20T02:06:31.187Z,100471.34
2017-06-20T02:09:01.018Z,100474.30
2017-06-20T02:11:30.107Z,100475.69
2017-06-20T02:13:59.945Z,100475.69
2017-06-20T02:16:29.032Z,100471.54
2017-06-20T02:18:58.092Z,100476.67
2017-06-20T02:21:27.934Z,100474.66
2017-06-20T02:23:57.008Z,100478.42
2017-06-20T02:26:26.084Z,100477.59
2017-06-20T02:28:55.148Z,100481.74
2017-06-20T02:31:24.235Z,100480.16
2017-06-20T02:33:53.331Z,100492.39
2017-06-20T02:36:22.398Z,100484.11
2017-06-20T02:38:51.453Z,100484.70
2017-06-20T02:41:20.532Z,100482.29
2017-06-20T02:43:49.583Z,100481.27
2017-06-20T02:46:18.674Z,100471.13
2017-06-20T02:48:48.486Z,100473.69
2017-06-20T02:51:17.542Z,100476.21
2017-06-20T02:53:47.626Z,100474.00
2017-06-20T02:56:16.684Z,100474.78
2017-06-20T02:58:46.548Z,100474.14
2017-06-20T03:01:15.832Z,100471.58
2017-06-20T03:03:45.105Z,100472.92
2017-06-20T03:06:14.985Z,100468.57
2017-06-20T03:08:44.055Z,100468.57
2017-06-20T03:11:14.953Z,100465.56
2017-06-20T03:13:44.036Z,100470.30
2017-06-20T03:16:13.853Z,100473.01
2017-06-20T03:18:43.686Z,100474.58
2017-06-20T03:21:12.796Z,100470.78
2017-06-20T03:23:41.864Z,100463.62
2017-06-20T03:26:10.962Z,100462.96
2017-06-20T03:28:40.795Z,100463.48
2017-06-20T03:31:09.849Z,100466.06
2017-06-20T03:33:39.944Z,100459.91
2017-06-20T03:36:09.022Z,100469.16
2017-06-20T03:38:38.109Z,100464.83
2017-06-20T03:41:07.426Z,100470.20
2017-06-20T03:43:36.695Z,100472.58
2017-06-20T03:46:05.796Z,100471.78
2017-06-20T03:48:34.883Z,100470.80
2017-06-20T03:51:03.965Z,100470.06
2017-06-20T03:53:33.778Z,100464.75
2017-06-20T03:56:02.868Z,100467.52
2017-06-20T03:58:32.776Z,100472.09
2017-06-20T04:01:02.633Z,100472.34
2017-06-20T04:03:31.726Z,100472.94
2017-06-20T04:06:00.793Z,100466.05
2017-06-20T04:08:29.863Z,100468.06
2017-06-20T04:10:58.928Z,100469.27
2017-06-20T04:13:27.996Z,100469.65
2017-06-20T04:15:57.055Z,100478.73
2017-06-20T04:18:26.868Z,100482.17
2017-06-20T04:21:02.256Z,100474.89
2017-06-20T04:23:31.324Z,100477.06
2017-06-20T04:26:00.395Z,100483.61
2017-06-20T04:28:29.485Z,100485.39
2017-06-20T04:30:58.536Z,100486.37
2017-06-20T04:33:27.624Z,100484.80
2017-06-20T04:35:56.712Z,100482.08
2017-06-20T04:38:26.038Z,100483.66
2017-06-20T04:40:55.167Z,100487.26
2017-06-20T04:43:24.220Z,100489.83
2017-06-20T04:45:53.277Z,100487.91
2017-06-20T04:48:23.136Z,100486.13
2017-06-20T04:50:52.224Z,100487.38
2017-06-20T04:53:21.279Z,100480.52
2017-06-20T04:55:51.108Z,100484.90
2017-06-20T04:58:20.166Z,100492.05
2017-06-20T05:00:49.263Z,100487.73
2017-06-20T05:03:18.332Z,100495.87
2017-06-20T05:05:47.394Z,100494.52
2017-06-20T05:08:16.475Z,100496.75
2017-06-20T05:10:45.563Z,100494.41
2017-06-20T05:13:15.397Z,100496.35
2017-06-20T05:15:44.576Z,100499.73
2017-06-20T05:18:14.419Z,100497.17
2017-06-20T05:20:43.452Z,100502.11
2017-06-20T05:23:12.885Z,100499.34
2017-06-20T05:25:41.936Z,100504.70
2017-06-20T05:28:11.901Z,100498.41
2017-06-20T05:30:40.974Z,100501.03
2017-06-20T05:33:10.039Z,100499.44
2017-06-20T05:35:39.137Z,100506.78
2017-06-20T05:38:08.216Z,100508.77
2017-06-20T05:40:37.267Z,100514.34
2017-06-20T05:43:07.120Z,100514.36
2017-06-20T05:45:36.177Z,100517.14
2017-06-20T05:48:06.016Z,100523.09
2017-06-20T05:50:35.075Z,100520.94
2017-06-20T05:53:04.901Z,100516.20
2017-06-20T05:55:34.724Z,100516.95
2017-06-20T05:58:03.792Z,100521.50
2017-06-20T06:00:33.656Z,100520.08
2017-06-20T06:03:02.728Z,100527.56
2017-06-20T06:05:32.064Z,100524.67
2017-06-20T06:08:01.132Z,100521.18
2017-06-20T06:10:30.176Z,100522.11
2017-06-20T06:12:59.274Z,100522.16
2017-06-20T06:15:28.335Z,100518.42
2017-06-20T06:17:57.404Z,100520.90
2017-06-20T06:20:27.208Z,100520.11
2017-06-20T06:22:57.029Z,100520.31
2017-06-20T06:25:26.133Z,100522.50
2017-06-20T06:27:55.244Z,100525.52
2017-06-20T06:30:24.309Z,100521.64
2017-06-20T06:32:53.387Z,100529.57
2017-06-20T06:35:23.228Z,100526.97
2017-06-20T06:37:52.363Z,100523.72
2017-06-20T06:40:21.536Z,100525.80
2017-06-20T06:42:50.585Z,100524.05
2017-06-20T06:45:20.404Z,100528.66
2017-06-20T06:47:50.266Z,100528.68
2017-06-20T06:50:19.332Z,100533.97
2017-06-20T06:52:48.406Z,100532.53
2017-06-20T06:55:18.314Z,100534.88
2017-06-20T06:57:47.346Z,100538.37
2017-06-20T07:00:16.401Z,100535.63
2017-06-20T07:02:45.505Z,100534.11
2017-06-20T07:05:15.324Z,100531.80
2017-06-20T07:07:44.384Z,100529.90
2017-06-20T07:10:14.509Z,100535.75
2017-06-20T07:12:43.545Z,100537.01
2017-06-20T07:15:12.625Z,100535.23
2017-06-20T07:17:42.447Z,100532.73
2017-06-20T07:20:11.538Z,100536.22
2017-06-20T07:22:40.992Z,100541.06
2017-06-20T07:25:11.059Z,100534.45
2017-06-20T07:27:40.076Z,100540.77
2017-06-20T07:30:10.005Z,100538.48
2017-06-20T07:32:39.067Z,100540.70
2017-06-20T07:35:08.128Z,100546.09
2017-06-20T07:37:37.215Z,100550.34
2017-06-20T07:40:06.572Z,100549.50
2017-06-20T07:42:35.628Z,100555.75
2017-06-20T07:45:05.480Z,100556.64
2017-06-20T07:47:34.553Z,100552.66
2017-06-20T07:50:04.376Z,100548.58
2017-06-20T07:52:33.460Z,100546.75
2017-06-20T07:55:03.324Z,100546.53
2017-06-20T07:57:32.424Z,100551.75
2017-06-20T08:00:01.519Z,100551.48
2017-06-20T08:02:30.575Z,100552.00
2017-06-20T08:04:59.703Z,100556.50
2017-06-20T08:07:28.815Z,100549.05
2017-06-20T08:09:57.887Z,100549.69
2017-06-20T08:12:26.990Z,100554.59
2017-06-20T08:14:56.052Z,100563.14
2017-06-20T08:17:25.136Z,100566.60
2017-06-20T08:19:54.209Z,100565.83
2017-06-20T08:22:24.031Z,100567.34
2017-06-20T08:24:53.870Z,100563.03
2017-06-20T08:27:22.961Z,100565.87
2017-06-20T08:29:52.020Z,100576.11
2017-06-20T08:32:21.116Z,100572.36
2017-06-20T08:34:50.340Z,100567.50
2017-06-20T08:37:25.372Z,100568.89
2017-06-20T08:39:55.325Z,100567.64
2017-06-20T08:42:24.390Z,100572.97
2017-06-20T08:44:53.510Z,100575.49
2017-06-20T08:47:22.562Z,100570.55
2017-06-20T08:49:52.425Z,100568.50
2017-06-20T08:52:21.499Z,100569.17
2017-06-20T08:54:50.551Z,100572.30
2017-06-20T08:57:19.648Z,100568.73
2017-06-20T08:59:48.744Z,100564.52
2017-06-20T09:02:17.811Z,100571.12
2017-06-20T09:04:46.941Z,100578.05
2017-06-20T09:07:17.028Z,100578.23
2017-06-20T09:09:46.105Z,100575.38
2017-06-20T09:12:15.158Z,100580.67
2017-06-20T09:14:44.988Z,100586.95
2017-06-20T09:17:14.096Z,100585.04
2017-06-20T09:19:43.155Z,100585.91
2017-06-20T09:22:12.312Z,100583.64
2017-06-20T09:24:41.394Z,100596.70
2017-06-20T09:27:10.537Z,100584.82
2017-06-20T09:29:39.612Z,100583.78
2017-06-20T09:32:08.725Z,100586.64
2017-06-20T09:34:37.811Z,100582.42
2017-06-20T09:37:06.860Z,100580.11
2017-06-20T09:39:35.947Z,100583.69
2017-06-20T09:42:05.081Z,100582.00
2017-06-20T09:44:34.143Z,100583.06
2017-06-20T09:47:03.230Z,100585.89
2017-06-20T09:49:32.406Z,100581.83
2017-06-20T09:52:02.255Z,100584.73
2017-06-20T09:54:31.329Z,100582.34
2017-06-20T09:57:00.404Z,100584.47
2017-06-20T09:59:29.469Z,100578.64
2017-06-20T10:01:58.544Z,100582.42
2017-06-20T10:04:27.607Z,100573.57
2017-06-20T10:06:56.682Z,100580.72
2017-06-20T10:09:26.529Z,100585.66
2017-06-20T10:11:55.583Z,100577.52
2017-06-20T10:14:24.644Z,100572.45
2017-06-20T10:16:53.736Z,100581.13
2017-06-20T10:19:22.812Z,100583.70
2017-06-20T10:21:51.896Z,100579.41
2017-06-20T10:24:21.707Z,100586.91
2017-06-20T10:26:50.767Z,100589.41
2017-06-20T10:29:19.841Z,100586.71
2017-06-20T10:31:48.927Z,100587.30
2017-06-20T10:34:18.295Z,100582.91
2017-06-20T10:36:47.364Z,100581.12
2017-06-20T10:39:16.447Z,100575.11
2017-06-20T10:41:45.544Z,100582.06
2017-06-20T10:44:14.584Z,100575.89
2017-06-20T10:46:43.660Z,100585.94
2017-06-20T10:49:13.476Z,100582.95
2017-06-20T10:51:42.576Z,100577.81
2017-06-20T10:54:12.400Z,100588.00
2017-06-20T10:56:41.572Z,100588.53
2017-06-20T10:59:10.652Z,100580.78
2017-06-20T11:01:39.738Z,100581.84
2017-06-20T11:04:08.831Z,100570.30
2017-06-20T11:06:37.872Z,100571.47
2017-06-20T11:09:06.942Z,100573.59
2017-06-20T11:11:36.812Z,100568.23
2017-06-20T11:14:05.911Z,100569.63
2017-06-20T11:16:35.004Z,100563.16
2017-06-20T11:19:04.061Z,100565.08
2017-06-20T11:21:33.174Z,100563.53
2017-06-20T11:24:02.356Z,100564.61
2017-06-20T11:26:31.447Z,100563.70
2017-06-20T11:29:01.245Z,100565.86
2017-06-20T11:31:31.096Z,100564.31
2017-06-20T11:34:00.165Z,100566.13
2017-06-20T11:36:30.081Z,100565.03
2017-06-20T11:38:59.160Z,100566.87
2017-06-20T11:41:28.999Z,100559.52
2017-06-20T11:43:58.200Z,100552.17
2017-06-20T11:46:27.275Z,100565.80
2017-06-20T11:48:56.356Z,100566.89
2017-06-20T11:51:25.417Z,100569.93
2017-06-20T11:53:54.499Z,100564.57
2017-06-20T11:56:23.595Z,100561.05
2017-06-20T11:58:52.652Z,100559.73
2017-06-20T12:01:22.518Z,100561.51
2017-06-20T12:03:51.589Z,100563.14
2017-06-20T12:06:21.476Z,100564.87
2017-06-20T12:08:51.309Z,100560.61
2017-06-20T12:11:20.395Z,100563.70
2017-06-20T12:13:49.476Z,100554.73
2017-06-20T12:16:19.300Z,100552.21
2017-06-20T12:18:48.369Z,100555.58
2017-06-20T12:21:17.436Z,100546.06
2017-06-20T12:23:46.504Z,100548.18
2017-06-20T12:26:15.595Z,100546.16
2017-06-20T12:28:44.648Z,100535.39
2017-06-20T12:31:14.507Z,100543.13
2017-06-20T12:33:43.576Z,100541.40
2017-06-20T12:36:12.665Z,100538.42
2017-06-20T12:38:42.500Z,100546.70
2017-06-20T12:41:11.617Z,100540.31
2017-06-20T12:43:40.714Z,100548.08
2017-06-20T12:46:09.830Z,100533.20
2017-06-20T12:48:38.896Z,100540.61
2017-06-20T12:51:08.019Z,100540.70
2017-06-20T12:53:37.067Z,100537.39
2017-06-20T12:56:06.935Z,100536.94
2017-06-20T12:58:35.974Z,100534.93
2017-06-20T13:01:05.068Z,100542.39
2017-06-20T13:03:34.125Z,100541.84
2017-06-20T13:06:04.864Z,100540.67
2017-06-20T13:08:33.947Z,100537.08
2017-06-20T13:11:03.008Z,100529.06
2017-06-20T13:13:32.064Z,100528.84
2017-06-20T13:16:01.873Z,100529.56
2017-06-20T13:18:31.715Z,100524.90
2017-06-20T13:21:00.787Z,100523.27
2017-06-20T13:23:29.837Z,100519.06
2017-06-20T13:25:58.933Z,100526.41
2017-06-20T13:28:27.989Z,100526.23
2017-06-20T13:30:57.797Z,100524.02
2017-06-20T13:33:26.876Z,100535.01
2017-06-20T13:35:56.709Z,100522.00
2017-06-20T13:38:25.761Z,100527.38
2017-06-20T13:40:54.861Z,100527.70
2017-06-20T13:43:23.947Z,100527.93
2017-06-20T13:45:53.046Z,100523.01
2017-06-20T13:48:22.106Z,100526.53
2017-06-20T13:50:51.188Z,100522.65
2017-06-20T13:53:20.264Z,100526.09
2017-06-20T13:55:49.345Z,100520.75
2017-06-20T13:58:19.185Z,100525.70
2017-06-20T14:00:48.261Z,100521.66
2017-06-20T14:03:18.115Z,100529.69
2017-06-20T14:05:47.186Z,100528.22
2017-06-20T14:08:16.257Z,100530.77
2017-06-20T14:10:45.324Z,100526.33
2017-06-20T14:13:14.392Z,100535.36
2017-06-20T14:15:43.509Z,100530.07
2017-06-20T14:18:12.585Z,100527.19
2017-06-20T14:20:41.652Z,100525.68
2017-06-20T14:23:11.464Z,100522.49
2017-06-20T14:25:40.564Z,100524.69
2017-06-20T14:28:09.655Z,100528.77
2017-06-20T14:30:39.467Z,100524.38
2017-06-20T14:33:09.330Z,100523.79
2017-06-20T14:35:38.383Z,100524.73
2017-06-20T14:38:07.457Z,100521.15
2017-06-20T14:40:37.300Z,100521.54
2017-06-20T14:43:06.431Z,100522.42
2017-06-20T14:45:35.526Z,100517.11
2017-06-20T14:48:04.607Z,100524.28
2017-06-20T14:50:33.704Z,100518.73
2017-06-20T14:53:02.804Z,100513.58
2017-06-20T14:55:31.837Z,100517.72
2017-06-20T14:58:01.681Z,100521.18
2017-06-20T15:00:30.772Z,100512.18
2017-06-20T15:02:59.848Z,100519.36
2017-06-20T15:05:28.940Z,100524.24
2017-06-20T15:07:58.005Z,100529.31
2017-06-20T15:10:27.968Z,100529.70
2017-06-20T15:12:57.114Z,100521.47
2017-06-20T15:15:26.161Z,100525.66
2017-06-20T15:17:55.229Z,100529.48
2017-06-20T15:20:25.193Z,100526.20
2017-06-20T15:22:54.229Z,100528.59
2017-06-20T15:25:23.637Z,100524.27
2017-06-20T15:27:52.720Z,100524.91
2017-06-20T15:30:21.800Z,100529.28
2017-06-20T15:32:50.861Z,100531.27
2017-06-20T15:35:19.956Z,100518.04
2017-06-20T15:37:49.035Z,100519.55
2017-06-20T15:40:18.135Z,100523.01
2017-06-20T15:42:47.316Z,100521.53
2017-06-20T15:45:16.389Z,100526.20
2017-06-20T15:47:45.484Z,100524.78
2017-06-20T15:50:14.595Z,100525.88
2017-06-20T15:52:43.690Z,100524.27
2017-06-20T15:55:12.769Z,100541.69
2017-06-20T15:57:41.855Z,100526.09
2017-06-20T16:00:10.952Z,100534.88
2017-06-20T16:02:40.024Z,100527.55
2017-06-20T16:05:09.125Z,100521.13
2017-06-20T16:07:38.215Z,100531.92
2017-06-20T16:10:07.288Z,100539.37
2017-06-20T16:12:36.384Z,100528.81
2017-06-20T16:15:05.454Z,100531.59
2017-06-20T16:17:34.565Z,100521.56
2017-06-20T16:20:03.637Z,100523.30
2017-06-20T16:22:32.700Z,100527.00
2017-06-20T16:25:02.021Z,100530.05
2017-06-20T16:27:31.093Z,100527.70
2017-06-20T16:30:00.201Z,100526.64
2017-06-20T16:32:29.271Z,100528.36
2017-06-20T16:34:58.350Z,100529.53
2017-06-20T16:37:27.443Z,100529.33
2017-06-20T16:39:56.474Z,100531.98
2017-06-20T16:42:25.543Z,100537.98
2017-06-20T16:44:54.588Z,100533.91
2017-06-20T16:47:23.677Z,100531.72
2017-06-20T16:49:52.720Z,100538.39
2017-06-20T16:52:21.767Z,100544.28
2017-06-20T16:54:50.834Z,100539.82
2017-06-20T16:57:19.893Z,100551.23
2017-06-20T16:59:48.960Z,100549.00
2017-06-20T17:02:18.017Z,100542.05
2017-06-20T17:04:47.075Z,100548.50
2017-06-20T17:07:16.161Z,100551.66
2017-06-20T17:09:45.259Z,100551.52
2017-06-20T17:12:14.358Z,100558.59
2017-06-20T17:14:43.417Z,100556.58
2017-06-20T17:17:12.642Z,100553.72
2017-06-20T17:19:41.688Z,100556.05
2017-06-20T17:22:10.806Z,100556.64
2017-06-20T17:24:39.903Z,100551.55
2017-06-20T17:27:08.991Z,100550.86
2017-06-20T17:29:38.071Z,100550.45
2017-06-20T17:32:07.148Z,100549.16
2017-06-20T17:34:36.220Z,100548.41
2017-06-20T17:37:05.287Z,100558.20
2017-06-20T17:39:34.395Z,100561.44
2017-06-20T17:42:03.444Z,100562.52
2017-06-20T17:44:32.531Z,100570.39
2017-06-20T17:47:01.587Z,100570.31
2017-06-20T17:49:30.631Z,100566.28
2017-06-20T17:51:59.763Z,100560.35
2017-06-20T17:54:28.891Z,100568.21
2017-06-20T17:56:58.619Z,100563.53
2017-06-20T17:59:27.695Z,100573.00
2017-06-20T18:01:56.743Z,100580.89
2017-06-20T18:04:25.900Z,100582.59
2017-06-20T18:06:54.966Z,100592.45
2017-06-20T18:09:24.017Z,100591.64
2017-06-20T18:11:53.111Z,100585.66
2017-06-20T18:14:22.203Z,100591.88
2017-06-20T18:16:51.257Z,100586.00
2017-06-20T18:19:20.318Z,100583.53
2017-06-20T18:21:49.484Z,100584.61
2017-06-20T18:24:18.557Z,100584.15
2017-06-20T18:26:47.616Z,100590.08
2017-06-20T18:29:16.666Z,100591.02
2017-06-20T18:31:45.751Z,100589.80
2017-06-20T18:34:14.852Z,100598.55
2017-06-20T18:36:43.927Z,100612.41
2017-06-20T18:39:12.990Z,100617.91
2017-06-20T18:41:42.111Z,100622.88
2017-06-20T18:44:11.196Z,100624.23
2017-06-20T18:46:40.298Z,100623.45
2017-06-20T18:49:09.348Z,100630.63
2017-06-20T18:51:38.458Z,100639.27
2017-06-20T18:54:07.577Z,100642.59
2017-06-20T18:56:36.671Z,100638.69
2017-06-20T18:59:05.721Z,100641.58
2017-06-20T19:01:34.780Z,100645.95
2017-06-20T19:04:03.866Z,100648.91
2017-06-20T19:06:32.898Z,100648.95
2017-06-20T19:09:01.951Z,100650.08
2017-06-20T19:11:31.025Z,100661.37
2017-06-20T19:14:00.091Z,100660.52
2017-06-20T19:16:29.165Z,100665.66
2017-06-20T19:18:58.252Z,100652.84
2017-06-20T19:21:27.327Z,100663.27
2017-06-20T19:23:56.400Z,100666.50
2017-06-20T19:26:26.214Z,100669.28
2017-06-20T19:28:56.266Z,100670.70
2017-06-20T19:31:25.332Z,100678.13
2017-06-20T19:33:55.181Z,100679.75
2017-06-20T19:36:24.292Z,100693.09
2017-06-20T19:38:53.362Z,100684.23
2017-06-20T19:41:22.420Z,100695.42
2017-06-20T19:43:52.865Z,100691.10
2017-06-20T19:46:21.924Z,100701.05
2017-06-20T19:48:50.996Z,100710.81
2017-06-20T19:51:20.079Z,100709.61
2017-06-20T19:53:49.176Z,100706.42
2017-06-20T19:56:18.288Z,100711.58
2017-06-20T19:58:47.359Z,100716.78
2017-06-20T20:01:16.415Z,100720.53
2017-06-20T20:03:46.280Z,100727.28
2017-06-20T20:06:15.340Z,100728.87
2017-06-20T20:08:44.419Z,100718.77
2017-06-20T20:11:14.267Z,100725.92
2017-06-20T20:13:43.336Z,100729.89
2017-06-20T20:16:13.182Z,100725.33
2017-06-20T20:18:42.252Z,100729.70
2017-06-20T20:21:11.345Z,100723.38
2017-06-20T20:23:41.161Z,100729.52
2017-06-20T20:26:10.235Z,100725.16
2017-06-20T20:28:40.084Z,100729.33
2017-06-20T20:31:09.127Z,100729.13
2017-06-20T20:33:38.197Z,100724.94
2017-06-20T20:36:07.311Z,100718.37
2017-06-20T20:38:36.335Z,100726.70
2017-06-20T20:41:06.435Z,100728.86
2017-06-20T20:43:35.511Z,100731.20
2017-06-20T20:46:04.580Z,100722.47
2017-06-20T20:48:33.712Z,100724.64
2017-06-20T20:51:02.814Z,100718.28
2017-06-20T20:53:31.869Z,100727.95
2017-06-20T20:56:00.932Z,100732.31
2017-06-20T20:58:30.037Z,100732.45
2017-06-20T21:00:59.876Z,100733.81
2017-06-20T21:03:28.924Z,100736.35
2017-06-20T21:05:58.772Z,100735.17
2017-06-20T21:08:27.922Z,100733.92
2017-06-20T21:10:57.780Z,100737.64
2017-06-20T21:13:26.835Z,100735.03
2017-06-20T21:15:55.898Z,100738.74
2017-06-20T21:18:24.983Z,100745.03
2017-06-20T21:20:54.064Z,100747.75
2017-06-20T21:23:23.117Z,100748.48
2017-06-20T21:25:52.963Z,100748.37
2017-06-20T21:28:22.043Z,100749.50
2017-06-20T21:30:51.125Z,100746.09
2017-06-20T21:33:20.956Z,100758.08
2017-06-20T21:35:50.036Z,100748.73
2017-06-20T21:38:19.871Z,100740.38
2017-06-20T21:40:48.934Z,100743.47
2017-06-20T21:43:18.011Z,100753.27
2017-06-20T21:45:47.072Z,100754.39
2017-06-20T21:48:16.144Z,100765.02
2017-06-20T21:50:45.212Z,100757.09
2017-06-20T21:53:15.046Z,100766.71
2017-06-20T21:55:44.902Z,100759.18
2017-06-20T21:58:13.976Z,100762.05
2017-06-20T22:00:43.021Z,100761.59
2017-06-20T22:03:12.108Z,100761.38
2017-06-20T22:05:41.165Z,100759.34
2017-06-20T22:08:10.249Z,100759.34
2017-06-20T22:10:39.315Z,100759.70
2017-06-20T22:13:09.152Z,100759.45
2017-06-20T22:15:38.222Z,100761.33
2017-06-20T22:18:07.552Z,100756.70
2017-06-20T22:20:36.627Z,100763.91
2017-06-20T22:23:05.700Z,100764.37
2017-06-20T22:25:34.801Z,100769.20
2017-06-20T22:28:04.914Z,100769.51
2017-06-20T22:30:35.063Z,100768.09
2017-06-20T22:33:04.128Z,100768.80
2017-06-20T22:35:33.215Z,100774.08
2017-06-20T22:38:02.299Z,100771.23
2017-06-20T22:40:31.372Z,100765.03
2017-06-20T22:43:00.518Z,100765.59
2017-06-20T22:45:29.578Z,100761.14
2017-06-20T22:47:58.669Z,100758.87
2017-06-20T22:50:27.765Z,100754.34
2017-06-20T22:52:56.821Z,100759.41
2017-06-20T22:55:25.883Z,100744.80
2017-06-20T22:57:54.953Z,100752.48
2017-06-20T23:00:24.007Z,100757.58
2017-06-20T23:02:53.058Z,100766.27
2017-06-20T23:05:22.124Z,100761.77
2017-06-20T23:07:51.205Z,100764.25
2017-06-20T23:10:20.404Z,100768.66
2017-06-20T23:12:49.492Z,100765.48
2017-06-20T23:15:18.752Z,100763.47
2017-06-20T23:17:47.828Z,100766.22
2017-06-20T23:20:16.932Z,100763.86
2017-06-20T23:22:45.968Z,100763.91
2017-06-20T23:25:15.088Z,100763.60
2017-06-20T23:27:44.144Z,100761.77
2017-06-20T23:30:13.222Z,100755.42
2017-06-20T23:32:42.296Z,100756.05
2017-06-20T23:35:11.348Z,100753.43
2017-06-20T23:37:40.414Z,100762.48
2017-06-20T23:40:09.493Z,100764.88
2017-06-20T23:42:38.508Z,100762.41
2017-06-20T23:45:07.651Z,100767.03
2017-06-20T23:47:36.684Z,100760.22
2017-06-20T23:50:05.989Z,100763.65
2017-06-20T23:52:35.032Z,100762.16
2017-06-20T23:55:04.090Z,100765.45
2017-06-20T23:57:33.188Z,100769.59
